createdAt,value
2018-12-02T00:04:01.949Z,7.71
2018-12-02T00:09:03.353Z,7.74
2018-12-02T00:14:04.535Z,7.73
2018-12-02T00:19:05.822Z,7.78
2018-12-02T00:24:07.007Z,7.81
2018-12-02T00:29:08.220Z,7.80
2018-12-02T00:34:09.372Z,7.88
2018-12-02T00:39:10.547Z,7.86
2018-12-02T00:44:11.818Z,7.83
2018-12-02T00:49:13.083Z,7.81
2018-12-02T00:54:14.231Z,7.83
2018-12-02T00:59:15.612Z,7.86
2018-12-02T12:00:27.431Z,12.21
2018-12-02T12:05:28.552Z,12.40
2018-12-02T12:10:29.621Z,12.77
2018-12-02T12:15:30.684Z,12.72
2018-12-02T12:20:31.787Z,12.62
2018-12-02T12:25:32.901Z,12.57
2018-12-02T12:30:34.057Z,12.65
2018-12-02T12:35:35.233Z,12.80
2018-12-02T12:40:36.312Z,12.83
2018-12-02T12:45:37.463Z,12.83
2018-12-02T12:50:38.592Z,12.93
2018-12-02T12:55:39.680Z,13.05
2018-12-02T13:00:40.774Z,13.19
2018-12-02T13:05:41.876Z,13.32
2018-12-02T13:10:43.046Z,13.29
2018-12-02T13:15:44.217Z,13.14
2018-12-02T13:20:45.239Z,13.12
2018-12-02T13:25:46.335Z,13.21
2018-12-02T13:30:47.420Z,13.17
2018-12-02T13:35:48.517Z,13.25
2018-12-02T13:40:49.646Z,13.28
2018-12-02T13:45:50.837Z,13.35
2018-12-02T13:50:51.974Z,13.14
2018-12-02T13:55:53.127Z,13.23
2018-12-02T14:00:54.755Z,13.18
2018-12-02T14:05:56.853Z,13.22
2018-12-02T14:10:58.023Z,13.15
2018-12-02T14:15:59.150Z,13.21
2018-12-02T14:21:00.349Z,13.20
2018-12-02T14:26:02.525Z,13.35
2018-12-02T14:31:03.856Z,13.56
2018-12-02T14:36:05.096Z,13.41
2018-12-02T14:41:06.242Z,13.35
2018-12-02T14:46:07.284Z,13.15
2018-12-02T14:51:08.408Z,13.14
2018-12-02T14:56:09.759Z,13.13
2018-12-02T15:01:10.913Z,13.24
2018-12-02T15:06:12.000Z,13.22
2018-12-02T15:11:13.319Z,13.39
2018-12-02T15:16:14.436Z,13.34
2018-12-02T15:21:15.706Z,13.32
2018-12-02T15:26:17.127Z,13.07
2018-12-02T15:31:18.278Z,12.96
2018-12-02T15:36:19.389Z,13.04
2018-12-02T15:41:21.086Z,13.14
2018-12-02T15:46:22.145Z,12.99
2018-12-02T15:51:23.287Z,12.79
2018-12-02T15:56:24.478Z,12.72
2018-12-02T16:01:25.559Z,12.61
2018-12-02T16:06:26.673Z,12.57
2018-12-02T16:11:27.789Z,12.60
2018-12-02T16:16:28.849Z,12.70
2018-12-02T16:21:29.911Z,12.77
2018-12-02T16:26:31.081Z,12.67
2018-12-02T16:31:32.208Z,12.61
2018-12-02T16:36:33.318Z,12.58
2018-12-02T16:41:34.357Z,12.63
2018-12-02T16:46:35.503Z,12.86
2018-12-02T16:51:36.601Z,12.77
2018-12-02T16:56:37.851Z,13.04
2018-12-02T17:01:42.307Z,12.89
2018-12-02T17:06:43.431Z,12.86
2018-12-02T17:11:44.487Z,12.95
2018-12-02T17:16:45.555Z,12.82
2018-12-02T17:21:46.619Z,12.89
2018-12-02T17:26:47.639Z,12.89
2018-12-02T17:31:48.712Z,12.96
2018-12-02T17:36:49.777Z,13.18
2018-12-02T17:41:50.857Z,13.10
2018-12-02T17:46:51.999Z,13.07
2018-12-02T17:51:53.054Z,13.12
2018-12-02T17:56:54.114Z,13.16
2018-12-02T18:01:55.212Z,13.26
2018-12-02T18:06:56.345Z,13.12
2018-12-02T18:11:57.408Z,13.16
2018-12-02T18:16:58.449Z,13.16
2018-12-02T18:21:59.568Z,13.02
2018-12-02T18:27:00.661Z,12.93
2018-12-02T18:32:01.810Z,12.79
2018-12-02T18:37:02.900Z,12.83
